sensor_id;sensor_type;location;lat;lon;timestamp;temperature;humidity
68701;DHT22;55682;51.114;5.882;2024-03-02T00:01:14;10.77;61.47
68701;DHT22;55682;51.114;5.882;2024-03-02T00:03:42;10.79;61.39
68701;DHT22;55682;51.114;5.882;2024-03-02T00:06:08;10.93;61.22
68701;DHT22;55682;51.114;5.882;2024-03-02T00:08:33;10.83;61.31
68701;DHT22;55682;51.114;5.882;2024-03-02T00:11:00;10.90;61.00
68701;DHT22;55682;51.114;5.882;2024-03-02T00:13:29;11.03;60.67
68701;DHT22;55682;51.114;5.882;2024-03-02T00:15:58;11.00;60.86
68701;DHT22;55682;51.114;5.882;2024-03-02T00:18:30;11.04;60.68
68701;DHT22;55682;51.114;5.882;2024-03-02T00:20:57;11.09;60.70
68701;DHT22;55682;51.114;5.882;2024-03-02T00:23:23;11.03;60.89
68701;DHT22;55682;51.114;5.882;2024-03-02T00:25:52;11.01;60.99
68701;DHT22;55682;51.114;5.882;2024-03-02T00:31:08;11.17;60.44
68701;DHT22;55682;51.114;5.882;2024-03-02T00:33:47;11.20;60.39
68701;DHT22;55682;51.114;5.882;2024-03-02T00:36:22;11.05;60.70
68701;DHT22;55682;51.114;5.882;2024-03-02T00:38:51;11.14;60.54
68701;DHT22;55682;51.114;5.882;2024-03-02T00:41:27;11.29;60.23
68701;DHT22;55682;51.114;5.882;2024-03-02T00:44:02;11.24;60.34
68701;DHT22;55682;51.114;5.882;2024-03-02T00:46:36;11.18;60.48
68701;DHT22;55682;51.114;5.882;2024-03-02T00:49:25;11.09;60.71
68701;DHT22;55682;51.114;5.882;2024-03-02T00:51:53;11.05;60.88
68701;DHT22;55682;51.114;5.882;2024-03-02T00:54:21;11.04;61.20
68701;DHT22;55682;51.114;5.882;2024-03-02T00:56:49;11.17;60.38
68701;DHT22;55682;51.114;5.882;2024-03-02T00:59:15;11.26;60.65
68701;DHT22;55682;51.114;5.882;2024-03-02T01:01:40;11.32;60.31
68701;DHT22;55682;51.114;5.882;2024-03-02T01:04:07;11.34;59.93
68701;DHT22;55682;51.114;5.882;2024-03-02T01:06:33;11.62;59.27
68701;DHT22;55682;51.114;5.882;2024-03-02T01:08:59;11.56;61.96
68701;DHT22;55682;51.114;5.882;2024-03-02T01:11:25;11.44;63.19
68701;DHT22;55682;51.114;5.882;2024-03-02T01:13:51;11.34;66.02
68701;DHT22;55682;51.114;5.882;2024-03-02T01:16:17;11.02;68.27
68701;DHT22;55682;51.114;5.882;2024-03-02T01:18:43;10.82;70.06
68701;DHT22;55682;51.114;5.882;2024-03-02T01:21:09;10.60;70.48
68701;DHT22;55682;51.114;5.882;2024-03-02T01:23:35;10.62;71.10
68701;DHT22;55682;51.114;5.882;2024-03-02T01:26:01;10.44;71.43
68701;DHT22;55682;51.114;5.882;2024-03-02T01:28:27;10.42;71.65
68701;DHT22;55682;51.114;5.882;2024-03-02T01:30:53;10.29;72.16
68701;DHT22;55682;51.114;5.882;2024-03-02T01:33:20;10.15;73.04
68701;DHT22;55682;51.114;5.882;2024-03-02T01:35:47;10.05;73.25
68701;DHT22;55682;51.114;5.882;2024-03-02T01:38:13;10.01;73.37
68701;DHT22;55682;51.114;5.882;2024-03-02T01:40:39;9.94;73.92
68701;DHT22;55682;51.114;5.882;2024-03-02T01:43:05;9.81;74.38
68701;DHT22;55682;51.114;5.882;2024-03-02T01:45:32;9.81;74.60
68701;DHT22;55682;51.114;5.882;2024-03-02T01:47:58;9.83;74.65
68701;DHT22;55682;51.114;5.882;2024-03-02T01:50:33;9.82;74.94
68701;DHT22;55682;51.114;5.882;2024-03-02T01:53:00;9.79;74.92
68701;DHT22;55682;51.114;5.882;2024-03-02T01:55:28;9.80;74.98
68701;DHT22;55682;51.114;5.882;2024-03-02T01:57:56;9.79;75.05
68701;DHT22;55682;51.114;5.882;2024-03-02T02:00:22;9.76;75.17
68701;DHT22;55682;51.114;5.882;2024-03-02T02:02:50;9.78;75.14
68701;DHT22;55682;51.114;5.882;2024-03-02T02:05:17;9.67;75.03
68701;DHT22;55682;51.114;5.882;2024-03-02T02:07:43;9.79;74.70
68701;DHT22;55682;51.114;5.882;2024-03-02T02:10:10;9.85;73.90
68701;DHT22;55682;51.114;5.882;2024-03-02T02:12:37;9.83;73.56
68701;DHT22;55682;51.114;5.882;2024-03-02T02:17:48;9.69;73.68
68701;DHT22;55682;51.114;5.882;2024-03-02T02:20:13;9.72;72.85
68701;DHT22;55682;51.114;5.882;2024-03-02T02:22:39;9.63;72.91
68701;DHT22;55682;51.114;5.882;2024-03-02T02:25:05;9.49;73.43
68701;DHT22;55682;51.114;5.882;2024-03-02T02:27:31;9.65;72.77
68701;DHT22;55682;51.114;5.882;2024-03-02T02:29:57;9.63;72.56
68701;DHT22;55682;51.114;5.882;2024-03-02T02:32:23;9.47;72.96
68701;DHT22;55682;51.114;5.882;2024-03-02T02:34:52;9.42;73.03
68701;DHT22;55682;51.114;5.882;2024-03-02T02:37:18;9.50;72.80
68701;DHT22;55682;51.114;5.882;2024-03-02T02:39:44;9.37;73.35
68701;DHT22;55682;51.114;5.882;2024-03-02T02:42:12;9.20;74.47
68701;DHT22;55682;51.114;5.882;2024-03-02T02:44:37;9.23;73.73
68701;DHT22;55682;51.114;5.882;2024-03-02T02:47:03;8.92;76.08
68701;DHT22;55682;51.114;5.882;2024-03-02T02:49:29;8.96;75.44
68701;DHT22;55682;51.114;5.882;2024-03-02T02:51:56;8.95;75.19
68701;DHT22;55682;51.114;5.882;2024-03-02T02:54:22;8.96;75.17
68701;DHT22;55682;51.114;5.882;2024-03-02T02:56:48;9.10;74.41
68701;DHT22;55682;51.114;5.882;2024-03-02T02:59:14;9.07;74.38
68701;DHT22;55682;51.114;5.882;2024-03-02T03:01:39;9.18;73.90
68701;DHT22;55682;51.114;5.882;2024-03-02T03:04:05;9.19;73.41
68701;DHT22;55682;51.114;5.882;2024-03-02T03:06:31;9.15;72.87
68701;DHT22;55682;51.114;5.882;2024-03-02T03:08:57;9.19;72.70
68701;DHT22;55682;51.114;5.882;2024-03-02T03:11:23;9.17;72.96
68701;DHT22;55682;51.114;5.882;2024-03-02T03:13:50;9.23;72.62
68701;DHT22;55682;51.114;5.882;2024-03-02T03:16:16;9.11;72.08
68701;DHT22;55682;51.114;5.882;2024-03-02T03:18:41;9.14;72.63
68701;DHT22;55682;51.114;5.882;2024-03-02T03:21:07;9.27;72.29
68701;DHT22;55682;51.114;5.882;2024-03-02T03:23:33;9.25;72.41
68701;DHT22;55682;51.114;5.882;2024-03-02T03:25:59;9.26;72.33
68701;DHT22;55682;51.114;5.882;2024-03-02T03:28:24;9.27;72.32
68701;DHT22;55682;51.114;5.882;2024-03-02T03:30:50;9.29;72.41
68701;DHT22;55682;51.114;5.882;2024-03-02T03:33:16;9.26;72.57
68701;DHT22;55682;51.114;5.882;2024-03-02T03:35:41;9.24;72.73
68701;DHT22;55682;51.114;5.882;2024-03-02T03:38:07;9.21;72.96
68701;DHT22;55682;51.114;5.882;2024-03-02T03:40:34;9.26;72.90
68701;DHT22;55682;51.114;5.882;2024-03-02T03:43:00;9.29;73.11
68701;DHT22;55682;51.114;5.882;2024-03-02T03:45:26;9.30;73.25
68701;DHT22;55682;51.114;5.882;2024-03-02T03:47:53;9.30;73.28
68701;DHT22;55682;51.114;5.882;2024-03-02T03:50:19;9.31;73.54
68701;DHT22;55682;51.114;5.882;2024-03-02T03:52:45;9.32;73.68
68701;DHT22;55682;51.114;5.882;2024-03-02T03:55:11;9.25;74.05
68701;DHT22;55682;51.114;5.882;2024-03-02T03:57:37;9.27;74.09
68701;DHT22;55682;51.114;5.882;2024-03-02T04:00:03;9.21;74.42
68701;DHT22;55682;51.114;5.882;2024-03-02T04:02:38;9.25;74.35
68701;DHT22;55682;51.114;5.882;2024-03-02T04:05:04;9.27;74.38
68701;DHT22;55682;51.114;5.882;2024-03-02T04:07:35;9.30;74.54
68701;DHT22;55682;51.114;5.882;2024-03-02T04:10:09;9.34;74.60
68701;DHT22;55682;51.114;5.882;2024-03-02T04:12:38;9.34;74.72
68701;DHT22;55682;51.114;5.882;2024-03-02T04:15:05;9.31;74.83
68701;DHT22;55682;51.114;5.882;2024-03-02T04:17:32;9.34;74.86
68701;DHT22;55682;51.114;5.882;2024-03-02T04:19:59;9.37;74.95
68701;DHT22;55682;51.114;5.882;2024-03-02T04:22:26;9.40;74.97
68701;DHT22;55682;51.114;5.882;2024-03-02T04:24:52;9.42;75.09
68701;DHT22;55682;51.114;5.882;2024-03-02T04:27:18;9.40;75.19
68701;DHT22;55682;51.114;5.882;2024-03-02T04:29:44;9.38;75.34
68701;DHT22;55682;51.114;5.882;2024-03-02T04:32:10;9.34;75.54
68701;DHT22;55682;51.114;5.882;2024-03-02T04:34:35;9.31;75.76
68701;DHT22;55682;51.114;5.882;2024-03-02T04:37:01;9.30;75.97
68701;DHT22;55682;51.114;5.882;2024-03-02T04:39:27;9.25;76.24
68701;DHT22;55682;51.114;5.882;2024-03-02T04:41:54;9.23;76.41
68701;DHT22;55682;51.114;5.882;2024-03-02T04:44:19;9.24;76.41
68701;DHT22;55682;51.114;5.882;2024-03-02T04:46:45;9.24;76.50
68701;DHT22;55682;51.114;5.882;2024-03-02T04:49:11;9.23;76.55
68701;DHT22;55682;51.114;5.882;2024-03-02T04:51:37;9.21;76.63
68701;DHT22;55682;51.114;5.882;2024-03-02T04:54:02;9.19;76.66
68701;DHT22;55682;51.114;5.882;2024-03-02T04:56:28;9.18;76.63
68701;DHT22;55682;51.114;5.882;2024-03-02T04:58:57;9.22;76.50
68701;DHT22;55682;51.114;5.882;2024-03-02T05:05:10;9.16;76.31
68701;DHT22;55682;51.114;5.882;2024-03-02T05:07:36;9.17;76.15
68701;DHT22;55682;51.114;5.882;2024-03-02T05:10:02;9.16;76.22
68701;DHT22;55682;51.114;5.882;2024-03-02T05:12:27;9.14;76.26
68701;DHT22;55682;51.114;5.882;2024-03-02T05:15:09;9.14;76.21
68701;DHT22;55682;51.114;5.882;2024-03-02T05:17:36;9.06;76.58
68701;DHT22;55682;51.114;5.882;2024-03-02T05:20:03;9.07;76.60
68701;DHT22;55682;51.114;5.882;2024-03-02T05:22:29;8.96;76.61
68701;DHT22;55682;51.114;5.882;2024-03-02T05:24:54;9.02;76.55
68701;DHT22;55682;51.114;5.882;2024-03-02T05:27:20;9.06;76.34
68701;DHT22;55682;51.114;5.882;2024-03-02T05:29:46;9.05;76.29
68701;DHT22;55682;51.114;5.882;2024-03-02T05:32:12;9.04;76.30
68701;DHT22;55682;51.114;5.882;2024-03-02T05:34:38;9.07;76.17
68701;DHT22;55682;51.114;5.882;2024-03-02T05:37:04;9.06;76.35
68701;DHT22;55682;51.114;5.882;2024-03-02T05:39:29;9.11;76.31
68701;DHT22;55682;51.114;5.882;2024-03-02T05:41:55;9.11;76.32
68701;DHT22;55682;51.114;5.882;2024-03-02T05:44:21;9.09;76.28
68701;DHT22;55682;51.114;5.882;2024-03-02T05:46:47;9.09;76.28
68701;DHT22;55682;51.114;5.882;2024-03-02T05:49:13;8.98;76.50
68701;DHT22;55682;51.114;5.882;2024-03-02T05:51:39;8.97;76.54
68701;DHT22;55682;51.114;5.882;2024-03-02T05:54:05;8.98;76.35
68701;DHT22;55682;51.114;5.882;2024-03-02T05:56:30;9.02;76.18
68701;DHT22;55682;51.114;5.882;2024-03-02T05:58:56;9.06;75.97
68701;DHT22;55682;51.114;5.882;2024-03-02T06:01:43;9.02;75.89
68701;DHT22;55682;51.114;5.882;2024-03-02T06:04:10;9.04;75.78
68701;DHT22;55682;51.114;5.882;2024-03-02T06:06:40;9.08;75.48
68701;DHT22;55682;51.114;5.882;2024-03-02T06:09:06;9.03;75.31
68701;DHT22;55682;51.114;5.882;2024-03-02T06:11:39;9.03;75.08
68701;DHT22;55682;51.114;5.882;2024-03-02T06:14:06;8.91;75.31
68701;DHT22;55682;51.114;5.882;2024-03-02T06:16:33;8.93;75.13
68701;DHT22;55682;51.114;5.882;2024-03-02T06:18:59;9.00;74.77
68701;DHT22;55682;51.114;5.882;2024-03-02T06:21:25;9.02;74.38
68701;DHT22;55682;51.114;5.882;2024-03-02T06:23:51;9.06;73.92
68701;DHT22;55682;51.114;5.882;2024-03-02T06:26:17;9.01;73.90
68701;DHT22;55682;51.114;5.882;2024-03-02T06:28:44;9.01;73.65
68701;DHT22;55682;51.114;5.882;2024-03-02T06:31:10;8.98;73.63
68701;DHT22;55682;51.114;5.882;2024-03-02T06:33:36;8.96;73.56
68701;DHT22;55682;51.114;5.882;2024-03-02T06:36:02;8.96;73.38
68701;DHT22;55682;51.114;5.882;2024-03-02T06:38:28;8.96;73.09
68701;DHT22;55682;51.114;5.882;2024-03-02T06:40:54;8.87;72.93
68701;DHT22;55682;51.114;5.882;2024-03-02T06:43:23;8.90;72.89
68701;DHT22;55682;51.114;5.882;2024-03-02T06:45:50;8.82;72.93
68701;DHT22;55682;51.114;5.882;2024-03-02T06:48:19;8.81;72.82
68701;DHT22;55682;51.114;5.882;2024-03-02T06:50:46;8.75;72.79
68701;DHT22;55682;51.114;5.882;2024-03-02T06:53:13;8.76;72.57
68701;DHT22;55682;51.114;5.882;2024-03-02T06:55:39;8.72;72.76
68701;DHT22;55682;51.114;5.882;2024-03-02T06:58:05;8.68;72.72
68701;DHT22;55682;51.114;5.882;2024-03-02T07:00:31;8.70;72.61
68701;DHT22;55682;51.114;5.882;2024-03-02T07:02:59;8.71;72.55
68701;DHT22;55682;51.114;5.882;2024-03-02T07:05:25;8.62;72.85
68701;DHT22;55682;51.114;5.882;2024-03-02T07:07:51;8.68;72.61
68701;DHT22;55682;51.114;5.882;2024-03-02T07:10:17;8.72;72.49
68701;DHT22;55682;51.114;5.882;2024-03-02T07:12:43;8.75;72.31
68701;DHT22;55682;51.114;5.882;2024-03-02T07:15:10;8.89;71.94
68701;DHT22;55682;51.114;5.882;2024-03-02T07:17:54;8.96;71.75
68701;DHT22;55682;51.114;5.882;2024-03-02T07:20:20;9.14;71.40
68701;DHT22;55682;51.114;5.882;2024-03-02T07:22:46;10.09;72.99
68701;DHT22;55682;51.114;5.882;2024-03-02T07:25:11;11.66;69.13
68701;DHT22;55682;51.114;5.882;2024-03-02T07:27:38;13.19;64.13
68701;DHT22;55682;51.114;5.882;2024-03-02T07:30:05;14.43;57.93
68701;DHT22;55682;51.114;5.882;2024-03-02T07:32:31;15.19;54.88
68701;DHT22;55682;51.114;5.882;2024-03-02T07:34:56;15.31;52.65
68701;DHT22;55682;51.114;5.882;2024-03-02T07:37:23;15.23;52.99
68701;DHT22;55682;51.114;5.882;2024-03-02T07:39:49;15.54;52.88
68701;DHT22;55682;51.114;5.882;2024-03-02T07:42:15;16.34;51.53
68701;DHT22;55682;51.114;5.882;2024-03-02T07:44:41;16.87;48.88
68701;DHT22;55682;51.114;5.882;2024-03-02T07:47:07;17.15;48.12
68701;DHT22;55682;51.114;5.882;2024-03-02T07:49:33;17.68;47.28
68701;DHT22;55682;51.114;5.882;2024-03-02T07:52:00;18.10;45.75
68701;DHT22;55682;51.114;5.882;2024-03-02T07:54:25;18.11;44.91
68701;DHT22;55682;51.114;5.882;2024-03-02T07:56:51;17.88;44.83
68701;DHT22;55682;51.114;5.882;2024-03-02T07:59:17;17.47;45.07
68701;DHT22;55682;51.114;5.882;2024-03-02T08:01:43;16.91;46.03
68701;DHT22;55682;51.114;5.882;2024-03-02T08:04:09;16.29;47.22
68701;DHT22;55682;51.114;5.882;2024-03-02T08:06:34;15.97;48.41
68701;DHT22;55682;51.114;5.882;2024-03-02T08:09:00;15.78;49.10
68701;DHT22;55682;51.114;5.882;2024-03-02T08:11:27;15.92;48.22
68701;DHT22;55682;51.114;5.882;2024-03-02T08:13:53;15.92;48.64
68701;DHT22;55682;51.114;5.882;2024-03-02T08:16:22;15.90;49.28
68701;DHT22;55682;51.114;5.882;2024-03-02T08:18:50;15.89;48.26
68701;DHT22;55682;51.114;5.882;2024-03-02T08:21:16;16.00;48.70
68701;DHT22;55682;51.114;5.882;2024-03-02T08:23:43;16.21;47.97
68701;DHT22;55682;51.114;5.882;2024-03-02T08:29:56;16.52;46.52
68701;DHT22;55682;51.114;5.882;2024-03-02T08:36:10;16.84;45.45
68701;DHT22;55682;51.114;5.882;2024-03-02T08:38:36;16.56;45.41
68701;DHT22;55682;51.114;5.882;2024-03-02T08:41:02;16.26;47.08
68701;DHT22;55682;51.114;5.882;2024-03-02T08:43:29;16.08;46.76
68701;DHT22;55682;51.114;5.882;2024-03-02T08:45:55;16.16;46.86
68701;DHT22;55682;51.114;5.882;2024-03-02T08:48:21;16.36;45.73
68701;DHT22;55682;51.114;5.882;2024-03-02T08:50:47;16.55;45.80
68701;DHT22;55682;51.114;5.882;2024-03-02T08:53:12;16.75;45.76
68701;DHT22;55682;51.114;5.882;2024-03-02T08:55:39;16.89;44.74
68701;DHT22;55682;51.114;5.882;2024-03-02T08:58:04;17.00;44.87
68701;DHT22;55682;51.114;5.882;2024-03-02T09:00:30;17.10;44.63
68701;DHT22;55682;51.114;5.882;2024-03-02T09:02:59;17.37;45.14
68701;DHT22;55682;51.114;5.882;2024-03-02T09:05:25;17.58;43.48
68701;DHT22;55682;51.114;5.882;2024-03-02T09:07:51;17.74;44.29
68701;DHT22;55682;51.114;5.882;2024-03-02T09:10:17;17.73;42.43
68701;DHT22;55682;51.114;5.882;2024-03-02T09:12:43;17.28;43.21
68701;DHT22;55682;51.114;5.882;2024-03-02T09:15:09;17.02;44.04
68701;DHT22;55682;51.114;5.882;2024-03-02T09:17:35;16.74;44.23
68701;DHT22;55682;51.114;5.882;2024-03-02T09:20:01;16.87;45.61
68701;DHT22;55682;51.114;5.882;2024-03-02T09:22:27;17.37;44.50
68701;DHT22;55682;51.114;5.882;2024-03-02T09:24:53;17.83;41.97
68701;DHT22;55682;51.114;5.882;2024-03-02T09:27:18;18.11;41.64
68701;DHT22;55682;51.114;5.882;2024-03-02T09:29:44;18.07;39.14
68701;DHT22;55682;51.114;5.882;2024-03-02T09:32:13;17.93;39.79
68701;DHT22;55682;51.114;5.882;2024-03-02T09:34:39;18.39;41.39
68701;DHT22;55682;51.114;5.882;2024-03-02T09:37:06;18.93;39.96
68701;DHT22;55682;51.114;5.882;2024-03-02T09:39:32;19.21;38.77
68701;DHT22;55682;51.114;5.882;2024-03-02T09:41:59;18.89;37.63
68701;DHT22;55682;51.114;5.882;2024-03-02T09:44:25;18.82;38.20
68701;DHT22;55682;51.114;5.882;2024-03-02T09:46:52;18.21;38.14
68701;DHT22;55682;51.114;5.882;2024-03-02T09:49:18;17.87;39.46
68701;DHT22;55682;51.114;5.882;2024-03-02T09:51:48;17.75;40.26
68701;DHT22;55682;51.114;5.882;2024-03-02T09:54:16;18.05;39.69
68701;DHT22;55682;51.114;5.882;2024-03-02T09:56:42;17.92;38.98
68701;DHT22;55682;51.114;5.882;2024-03-02T09:59:08;17.99;38.99
68701;DHT22;55682;51.114;5.882;2024-03-02T10:01:34;18.22;38.20
68701;DHT22;55682;51.114;5.882;2024-03-02T10:04:01;18.46;38.54
68701;DHT22;55682;51.114;5.882;2024-03-02T10:06:29;18.61;38.28
68701;DHT22;55682;51.114;5.882;2024-03-02T10:08:55;18.49;38.54
68701;DHT22;55682;51.114;5.882;2024-03-02T10:11:29;18.41;39.43
68701;DHT22;55682;51.114;5.882;2024-03-02T10:14:10;18.58;38.91
68701;DHT22;55682;51.114;5.882;2024-03-02T10:16:43;19.06;36.70
68701;DHT22;55682;51.114;5.882;2024-03-02T10:19:23;19.54;37.64
68701;DHT22;55682;51.114;5.882;2024-03-02T10:21:54;20.03;36.51
68701;DHT22;55682;51.114;5.882;2024-03-02T10:24:21;20.04;35.11
68701;DHT22;55682;51.114;5.882;2024-03-02T10:26:48;19.74;35.34
68701;DHT22;55682;51.114;5.882;2024-03-02T10:29:14;19.17;36.07
68701;DHT22;55682;51.114;5.882;2024-03-02T10:31:42;18.93;36.34
68701;DHT22;55682;51.114;5.882;2024-03-02T10:34:10;19.38;37.52
68701;DHT22;55682;51.114;5.882;2024-03-02T10:36:37;19.55;36.16
68701;DHT22;55682;51.114;5.882;2024-03-02T10:39:06;19.39;36.80
68701;DHT22;55682;51.114;5.882;2024-03-02T10:41:34;18.95;36.06
68701;DHT22;55682;51.114;5.882;2024-03-02T10:44:02;18.69;37.02
68701;DHT22;55682;51.114;5.882;2024-03-02T10:46:30;18.57;37.43
68701;DHT22;55682;51.114;5.882;2024-03-02T10:48:57;18.82;37.67
68701;DHT22;55682;51.114;5.882;2024-03-02T10:51:27;18.86;37.17
68701;DHT22;55682;51.114;5.882;2024-03-02T10:53:55;18.74;36.84
68701;DHT22;55682;51.114;5.882;2024-03-02T10:59:33;19.27;35.92
68701;DHT22;55682;51.114;5.882;2024-03-02T11:02:01;19.27;35.48
68701;DHT22;55682;51.114;5.882;2024-03-02T11:04:28;19.28;35.35
68701;DHT22;55682;51.114;5.882;2024-03-02T11:07:08;19.41;35.02
68701;DHT22;55682;51.114;5.882;2024-03-02T11:09:40;19.44;35.69
68701;DHT22;55682;51.114;5.882;2024-03-02T11:12:19;20.14;34.94
68701;DHT22;55682;51.114;5.882;2024-03-02T11:14:45;19.97;33.67
68701;DHT22;55682;51.114;5.882;2024-03-02T11:17:14;20.06;34.64
68701;DHT22;55682;51.114;5.882;2024-03-02T11:19:44;20.22;33.97
68701;DHT22;55682;51.114;5.882;2024-03-02T11:22:12;20.19;33.99
68701;DHT22;55682;51.114;5.882;2024-03-02T11:24:38;19.62;34.21
68701;DHT22;55682;51.114;5.882;2024-03-02T11:27:05;19.01;35.50
68701;DHT22;55682;51.114;5.882;2024-03-02T11:32:15;18.93;36.47
68701;DHT22;55682;51.114;5.882;2024-03-02T11:34:43;18.84;35.48
68701;DHT22;55682;51.114;5.882;2024-03-02T11:37:13;18.86;36.43
68701;DHT22;55682;51.114;5.882;2024-03-02T11:39:40;18.97;36.47
68701;DHT22;55682;51.114;5.882;2024-03-02T11:42:09;19.33;35.90
68701;DHT22;55682;51.114;5.882;2024-03-02T11:44:42;19.51;35.82
68701;DHT22;55682;51.114;5.882;2024-03-02T11:47:10;19.99;35.32
68701;DHT22;55682;51.114;5.882;2024-03-02T11:49:38;20.37;34.77
68701;DHT22;55682;51.114;5.882;2024-03-02T11:52:09;20.76;32.60
68701;DHT22;55682;51.114;5.882;2024-03-02T11:54:41;20.70;31.75
68701;DHT22;55682;51.114;5.882;2024-03-02T11:57:16;20.44;33.22
68701;DHT22;55682;51.114;5.882;2024-03-02T11:59:43;20.21;32.66
68701;DHT22;55682;51.114;5.882;2024-03-02T12:02:20;20.47;32.66
68701;DHT22;55682;51.114;5.882;2024-03-02T12:04:47;20.88;32.55
68701;DHT22;55682;51.114;5.882;2024-03-02T12:07:23;20.81;32.81
68701;DHT22;55682;51.114;5.882;2024-03-02T12:10:09;20.78;32.34
68701;DHT22;55682;51.114;5.882;2024-03-02T12:12:37;20.46;31.94
68701;DHT22;55682;51.114;5.882;2024-03-02T12:15:03;20.53;32.45
68701;DHT22;55682;51.114;5.882;2024-03-02T12:17:29;20.83;33.09
68701;DHT22;55682;51.114;5.882;2024-03-02T12:19:56;21.11;32.86
68701;DHT22;55682;51.114;5.882;2024-03-02T12:22:22;21.46;32.10
68701;DHT22;55682;51.114;5.882;2024-03-02T12:24:47;21.14;31.51
68701;DHT22;55682;51.114;5.882;2024-03-02T12:27:15;20.47;32.53
68701;DHT22;55682;51.114;5.882;2024-03-02T12:29:41;19.94;33.73
68701;DHT22;55682;51.114;5.882;2024-03-02T12:32:08;19.72;34.38
68701;DHT22;55682;51.114;5.882;2024-03-02T12:34:34;19.66;34.95
68701;DHT22;55682;51.114;5.882;2024-03-02T12:37:00;19.52;35.41
68701;DHT22;55682;51.114;5.882;2024-03-02T12:39:26;19.46;36.31
68701;DHT22;55682;51.114;5.882;2024-03-02T12:41:52;19.42;36.26
68701;DHT22;55682;51.114;5.882;2024-03-02T12:44:20;19.54;36.28
68701;DHT22;55682;51.114;5.882;2024-03-02T12:46:47;19.90;35.84
68701;DHT22;55682;51.114;5.882;2024-03-02T12:49:15;20.44;35.29
68701;DHT22;55682;51.114;5.882;2024-03-02T12:51:42;20.80;34.60
68701;DHT22;55682;51.114;5.882;2024-03-02T12:54:10;21.03;34.05
68701;DHT22;55682;51.114;5.882;2024-03-02T12:56:37;20.96;34.33
68701;DHT22;55682;51.114;5.882;2024-03-02T12:59:04;20.88;34.63
68701;DHT22;55682;51.114;5.882;2024-03-02T13:01:30;20.49;34.22
68701;DHT22;55682;51.114;5.882;2024-03-02T13:03:58;20.15;34.15
68701;DHT22;55682;51.114;5.882;2024-03-02T13:06:25;19.70;35.26
68701;DHT22;55682;51.114;5.882;2024-03-02T13:08:53;19.41;35.77
68701;DHT22;55682;51.114;5.882;2024-03-02T13:11:22;19.25;36.54
68701;DHT22;55682;51.114;5.882;2024-03-02T13:13:49;18.91;36.92
68701;DHT22;55682;51.114;5.882;2024-03-02T13:16:16;18.87;37.86
68701;DHT22;55682;51.114;5.882;2024-03-02T13:18:44;18.86;37.91
68701;DHT22;55682;51.114;5.882;2024-03-02T13:21:10;18.71;37.80
68701;DHT22;55682;51.114;5.882;2024-03-02T13:23:36;18.68;38.09
68701;DHT22;55682;51.114;5.882;2024-03-02T13:26:02;18.66;38.75
68701;DHT22;55682;51.114;5.882;2024-03-02T13:28:28;18.54;38.84
68701;DHT22;55682;51.114;5.882;2024-03-02T13:30:54;18.54;38.91
68701;DHT22;55682;51.114;5.882;2024-03-02T13:33:19;18.57;38.91
68701;DHT22;55682;51.114;5.882;2024-03-02T13:35:57;18.57;38.53
68701;DHT22;55682;51.114;5.882;2024-03-02T13:38:22;18.27;38.74
68701;DHT22;55682;51.114;5.882;2024-03-02T13:40:49;18.05;39.08
68701;DHT22;55682;51.114;5.882;2024-03-02T13:43:17;17.87;39.81
68701;DHT22;55682;51.114;5.882;2024-03-02T13:45:43;17.55;40.25
68701;DHT22;55682;51.114;5.882;2024-03-02T13:48:09;17.61;40.66
68701;DHT22;55682;51.114;5.882;2024-03-02T13:50:35;17.80;40.52
68701;DHT22;55682;51.114;5.882;2024-03-02T13:53:01;17.95;40.49
68701;DHT22;55682;51.114;5.882;2024-03-02T13:55:28;18.05;39.40
68701;DHT22;55682;51.114;5.882;2024-03-02T13:57:54;18.13;38.18
68701;DHT22;55682;51.114;5.882;2024-03-02T14:00:20;18.29;39.12
68701;DHT22;55682;51.114;5.882;2024-03-02T14:02:46;18.43;39.14
68701;DHT22;55682;51.114;5.882;2024-03-02T14:05:12;18.61;39.66
68701;DHT22;55682;51.114;5.882;2024-03-02T14:07:39;18.54;40.28
68701;DHT22;55682;51.114;5.882;2024-03-02T14:10:05;18.34;41.20
68701;DHT22;55682;51.114;5.882;2024-03-02T14:12:31;18.09;41.93
68701;DHT22;55682;51.114;5.882;2024-03-02T14:14:57;18.09;42.05
68701;DHT22;55682;51.114;5.882;2024-03-02T14:17:28;17.99;42.03
68701;DHT22;55682;51.114;5.882;2024-03-02T14:19:54;17.85;42.52
68701;DHT22;55682;51.114;5.882;2024-03-02T14:26:07;17.37;43.40
68701;DHT22;55682;51.114;5.882;2024-03-02T14:28:33;17.44;43.84
68701;DHT22;55682;51.114;5.882;2024-03-02T14:30:59;17.68;43.68
68701;DHT22;55682;51.114;5.882;2024-03-02T14:33:27;17.89;42.87
68701;DHT22;55682;51.114;5.882;2024-03-02T14:35:53;17.98;42.13
68701;DHT22;55682;51.114;5.882;2024-03-02T14:38:20;18.03;42.28
68701;DHT22;55682;51.114;5.882;2024-03-02T14:40:46;18.09;42.65
68701;DHT22;55682;51.114;5.882;2024-03-02T14:43:11;18.27;42.19
68701;DHT22;55682;51.114;5.882;2024-03-02T14:45:37;18.41;41.81
68701;DHT22;55682;51.114;5.882;2024-03-02T14:48:03;18.57;41.53
68701;DHT22;55682;51.114;5.882;2024-03-02T14:50:29;18.69;41.22
68701;DHT22;55682;51.114;5.882;2024-03-02T14:52:55;18.82;40.79
68701;DHT22;55682;51.114;5.882;2024-03-02T14:55:24;18.64;41.15
68701;DHT22;55682;51.114;5.882;2024-03-02T14:57:49;18.56;41.12
68701;DHT22;55682;51.114;5.882;2024-03-02T15:04:02;17.92;42.56
68701;DHT22;55682;51.114;5.882;2024-03-02T15:06:28;17.72;43.23
68701;DHT22;55682;51.114;5.882;2024-03-02T15:08:54;17.51;43.77
68701;DHT22;55682;51.114;5.882;2024-03-02T15:11:21;17.34;44.16
68701;DHT22;55682;51.114;5.882;2024-03-02T15:13:48;17.34;44.44
68701;DHT22;55682;51.114;5.882;2024-03-02T15:16:14;17.32;45.01
68701;DHT22;55682;51.114;5.882;2024-03-02T15:18:47;17.39;45.06
68701;DHT22;55682;51.114;5.882;2024-03-02T15:21:13;17.34;45.22
68701;DHT22;55682;51.114;5.882;2024-03-02T15:23:39;17.16;45.34
68701;DHT22;55682;51.114;5.882;2024-03-02T15:26:04;17.06;45.71
68701;DHT22;55682;51.114;5.882;2024-03-02T15:28:30;16.95;46.09
68701;DHT22;55682;51.114;5.882;2024-03-02T15:30:56;16.87;46.84
68701;DHT22;55682;51.114;5.882;2024-03-02T15:33:22;16.76;46.80
68701;DHT22;55682;51.114;5.882;2024-03-02T15:35:50;16.70;47.05
68701;DHT22;55682;51.114;5.882;2024-03-02T15:38:16;16.60;47.21
68701;DHT22;55682;51.114;5.882;2024-03-02T15:40:42;16.55;47.22
68701;DHT22;55682;51.114;5.882;2024-03-02T15:43:08;16.54;47.35
68701;DHT22;55682;51.114;5.882;2024-03-02T15:45:34;16.50;47.41
68701;DHT22;55682;51.114;5.882;2024-03-02T15:48:00;16.51;47.35
68701;DHT22;55682;51.114;5.882;2024-03-02T15:50:28;16.52;47.16
68701;DHT22;55682;51.114;5.882;2024-03-02T15:52:58;16.49;47.02
68701;DHT22;55682;51.114;5.882;2024-03-02T15:55:28;16.48;46.51
68701;DHT22;55682;51.114;5.882;2024-03-02T15:57:54;16.42;46.40
68701;DHT22;55682;51.114;5.882;2024-03-02T16:00:20;16.42;46.83
68701;DHT22;55682;51.114;5.882;2024-03-02T16:02:47;16.45;46.75
68701;DHT22;55682;51.114;5.882;2024-03-02T16:05:12;16.50;46.59
68701;DHT22;55682;51.114;5.882;2024-03-02T16:07:38;16.39;46.57